createdAt,value
2019-03-17T00:00:11.685Z,11.20
2019-03-17T00:02:45.821Z,11.20
2019-03-17T00:05:17.847Z,11.20
2019-03-17T00:07:46.888Z,11.20
2019-03-17T00:10:16.090Z,11.10
2019-03-17T00:12:45.496Z,11.10
2019-03-17T00:15:14.672Z,11.10
2019-03-17T00:17:47.260Z,11.00
2019-03-17T00:20:16.430Z,11.00
2019-03-17T00:22:45.759Z,11.00
2019-03-17T00:25:14.773Z,11.00
2019-03-17T00:27:44.281Z,11.00
2019-03-17T00:30:13.429Z,11.00
2019-03-17T00:32:42.873Z,11.00
2019-03-17T00:35:12.039Z,11.00
2019-03-17T00:37:41.203Z,11.00
2019-03-17T00:40:11.208Z,11.00
2019-03-17T00:42:40.383Z,11.00
2019-03-17T00:45:11.547Z,11.00
2019-03-17T00:47:40.150Z,11.00
2019-03-17T00:50:12.189Z,11.00
2019-03-17T00:52:41.403Z,11.00
2019-03-17T00:55:11.292Z,11.00
2019-03-17T00:57:40.429Z,11.00
2019-03-17T01:00:11.427Z,11.00
2019-03-17T01:02:41.100Z,11.00
2019-03-17T01:05:10.316Z,11.00
2019-03-17T01:07:40.021Z,11.00
2019-03-17T01:10:09.281Z,11.00
2019-03-17T01:12:38.574Z,11.00
2019-03-17T01:15:07.760Z,11.00
2019-03-17T01:17:36.788Z,11.00
2019-03-17T01:20:07.248Z,11.00
2019-03-17T01:22:36.509Z,10.90
2019-03-17T01:25:06.471Z,10.90
2019-03-17T01:27:35.748Z,11.00
2019-03-17T01:30:05.588Z,11.00
2019-03-17T01:32:36.220Z,11.00
2019-03-17T01:35:09.539Z,11.00
2019-03-17T01:37:38.180Z,11.00
2019-03-17T01:40:07.472Z,11.00
2019-03-17T01:42:37.307Z,11.00
2019-03-17T01:45:07.426Z,11.00
2019-03-17T01:47:36.442Z,11.00
2019-03-17T01:50:05.774Z,11.00
2019-03-17T01:52:34.765Z,11.00
2019-03-17T01:55:04.399Z,10.90
2019-03-17T01:57:33.650Z,10.90
2019-03-17T02:00:03.156Z,11.00
2019-03-17T02:02:33.344Z,11.00
2019-03-17T02:05:02.425Z,11.00
2019-03-17T02:07:32.266Z,10.90
2019-03-17T02:10:01.189Z,11.00
2019-03-17T02:12:30.232Z,11.00
2019-03-17T02:14:59.400Z,11.00
2019-03-17T02:17:29.077Z,11.00
2019-03-17T02:19:58.190Z,11.00
2019-03-17T02:22:27.446Z,11.00
2019-03-17T02:24:56.543Z,11.00
2019-03-17T02:27:25.454Z,11.10
2019-03-17T02:29:54.746Z,11.00
2019-03-17T02:32:23.913Z,11.00
2019-03-17T02:34:53.230Z,11.10
2019-03-17T02:37:25.090Z,11.00
2019-03-17T02:39:54.090Z,11.10
2019-03-17T02:42:23.071Z,11.00
2019-03-17T02:44:52.034Z,11.00
2019-03-17T02:47:20.970Z,11.00
2019-03-17T02:49:52.221Z,11.00
2019-03-17T02:52:21.288Z,11.10
2019-03-17T02:54:50.610Z,11.10
2019-03-17T02:57:21.997Z,11.10
2019-03-17T02:59:51.206Z,11.00
2019-03-17T03:02:20.517Z,11.00
2019-03-17T03:04:49.612Z,11.00
2019-03-17T03:07:18.686Z,11.00
2019-03-17T03:09:47.826Z,11.00
2019-03-17T03:12:16.880Z,10.90
2019-03-17T03:14:45.860Z,10.90
2019-03-17T03:17:15.089Z,10.90
2019-03-17T03:19:44.492Z,11.00
2019-03-17T03:22:13.464Z,10.90
2019-03-17T03:24:42.882Z,11.00
2019-03-17T03:27:11.852Z,11.00
2019-03-17T03:29:40.842Z,11.00
2019-03-17T03:32:09.802Z,11.00
2019-03-17T03:34:40.074Z,10.90
2019-03-17T03:37:09.131Z,11.00
2019-03-17T03:39:38.151Z,11.00
2019-03-17T03:42:07.513Z,11.00
2019-03-17T03:44:36.735Z,11.00
2019-03-17T03:47:05.761Z,11.00
2019-03-17T03:49:34.818Z,11.00
2019-03-17T03:52:03.816Z,11.00
2019-03-17T03:54:32.853Z,11.00
2019-03-17T03:57:01.968Z,11.00
2019-03-17T03:59:31.035Z,11.00
2019-03-17T04:02:00.305Z,11.00
2019-03-17T04:04:29.639Z,11.00
2019-03-17T04:06:58.649Z,11.00
2019-03-17T04:09:28.048Z,11.00
2019-03-17T04:11:57.061Z,11.00
2019-03-17T04:14:26.055Z,11.00
2019-03-17T04:16:55.182Z,10.90
2019-03-17T04:19:24.337Z,10.90
2019-03-17T04:21:53.377Z,10.90
2019-03-17T04:24:22.717Z,11.00
2019-03-17T04:26:53.749Z,10.90
2019-03-17T04:29:23.169Z,10.90
2019-03-17T04:31:54.402Z,10.90
2019-03-17T04:34:23.473Z,10.90
2019-03-17T04:36:52.655Z,10.90
2019-03-17T04:39:23.256Z,10.90
2019-03-17T04:41:52.788Z,10.90
2019-03-17T04:44:22.194Z,10.90
2019-03-17T04:46:51.314Z,10.90
2019-03-17T04:49:20.503Z,10.90
2019-03-17T04:51:49.807Z,10.90
2019-03-17T04:54:18.744Z,10.90
2019-03-17T04:56:47.788Z,10.90
2019-03-17T04:59:16.819Z,10.90
2019-03-17T05:01:46.067Z,10.90
2019-03-17T05:04:15.125Z,10.90
2019-03-17T05:06:52.626Z,10.90
2019-03-17T05:09:15.078Z,10.90
2019-03-17T05:11:44.060Z,10.90
2019-03-17T05:14:12.992Z,10.80
2019-03-17T05:16:42.130Z,10.80
2019-03-17T05:19:11.173Z,10.80
2019-03-17T05:21:40.246Z,10.80
2019-03-17T05:24:09.174Z,10.80
2019-03-17T05:26:38.111Z,10.90
2019-03-17T05:29:07.056Z,10.80
2019-03-17T05:31:35.973Z,10.80
2019-03-17T05:34:04.901Z,10.80
2019-03-17T05:36:33.784Z,10.80
2019-03-17T05:39:02.751Z,10.90
2019-03-17T05:41:31.643Z,10.90
2019-03-17T05:44:00.829Z,11.00
2019-03-17T05:46:29.797Z,11.00
2019-03-17T05:48:58.831Z,11.00
2019-03-17T05:51:27.775Z,11.00
2019-03-17T05:53:57.053Z,10.90
2019-03-17T05:56:26.130Z,10.90
2019-03-17T05:58:55.278Z,10.90
2019-03-17T06:01:26.126Z,10.90
2019-03-17T06:03:55.159Z,10.90
2019-03-17T06:06:24.161Z,11.00
2019-03-17T06:08:53.234Z,11.00
2019-03-17T06:11:22.432Z,11.00
2019-03-17T06:13:51.496Z,11.00
2019-03-17T06:16:20.733Z,11.00
2019-03-17T06:18:49.783Z,11.00
2019-03-17T06:21:18.923Z,11.00
2019-03-17T06:23:48.091Z,11.00
2019-03-17T06:26:17.148Z,11.00
2019-03-17T06:28:46.170Z,11.00
2019-03-17T06:31:15.330Z,11.00
2019-03-17T06:33:44.645Z,11.00
2019-03-17T06:36:13.568Z,11.00
2019-03-17T06:38:42.733Z,11.10
2019-03-17T06:41:11.727Z,11.10
2019-03-17T06:43:41.212Z,11.10
2019-03-17T06:46:10.471Z,11.20
2019-03-17T06:48:39.651Z,11.20
2019-03-17T06:51:09.937Z,11.20
2019-03-17T06:53:39.380Z,11.20
2019-03-17T06:56:08.455Z,11.20
2019-03-17T06:58:37.518Z,11.30
2019-03-17T07:01:06.441Z,11.30
2019-03-17T07:03:35.611Z,11.30
2019-03-17T07:06:04.934Z,11.30
2019-03-17T07:08:37.476Z,11.30
2019-03-17T07:11:10.823Z,11.30
2019-03-17T07:13:41.048Z,11.30
2019-03-17T07:16:10.489Z,11.20
2019-03-17T07:18:39.955Z,11.20
2019-03-17T07:21:09.469Z,11.10
2019-03-17T07:23:39.651Z,11.10
2019-03-17T07:26:08.916Z,11.10
2019-03-17T07:28:38.024Z,11.10
2019-03-17T07:31:07.843Z,11.10
2019-03-17T07:33:37.045Z,11.10
2019-03-17T07:36:08.316Z,11.10
2019-03-17T07:38:37.984Z,11.10
2019-03-17T07:41:07.235Z,11.10
2019-03-17T07:43:36.591Z,11.10
2019-03-17T07:46:05.932Z,11.10
2019-03-17T07:48:34.942Z,11.20
2019-03-17T07:51:04.152Z,11.30
2019-03-17T07:53:33.401Z,11.30
2019-03-17T07:56:02.572Z,11.40
2019-03-17T07:58:31.845Z,11.50
2019-03-17T08:01:01.341Z,11.50
2019-03-17T08:03:30.452Z,11.60
2019-03-17T08:05:59.943Z,11.60
2019-03-17T08:08:29.684Z,11.70
2019-03-17T08:10:59.498Z,11.80
2019-03-17T08:13:37.316Z,11.80
2019-03-17T08:16:06.495Z,11.90
2019-03-17T08:18:38.487Z,11.90
2019-03-17T08:21:07.652Z,11.90
2019-03-17T08:23:36.866Z,12.00
2019-03-17T08:26:06.003Z,12.00
2019-03-17T08:28:35.044Z,12.10
2019-03-17T08:31:04.136Z,12.20
2019-03-17T08:33:33.141Z,12.30
2019-03-17T08:36:02.447Z,12.50
2019-03-17T08:38:31.809Z,12.50
2019-03-17T08:41:01.657Z,12.60
2019-03-17T08:43:31.736Z,12.70
2019-03-17T08:46:01.034Z,12.80
2019-03-17T08:48:30.286Z,12.80
2019-03-17T08:50:59.529Z,12.90
2019-03-17T08:53:28.847Z,12.90
2019-03-17T08:55:59.450Z,12.90
2019-03-17T08:58:28.622Z,12.90
2019-03-17T09:00:57.940Z,12.90
2019-03-17T09:03:27.276Z,12.80
2019-03-17T09:05:56.871Z,12.80
2019-03-17T09:08:34.797Z,12.80
2019-03-17T09:10:57.200Z,12.80
2019-03-17T09:13:28.690Z,12.80
2019-03-17T09:15:57.929Z,12.80
2019-03-17T09:18:27.450Z,12.80
2019-03-17T09:20:57.619Z,12.90
2019-03-17T09:23:26.693Z,12.90
2019-03-17T09:25:55.961Z,12.90
2019-03-17T09:28:35.938Z,12.90
2019-03-17T09:31:07.419Z,13.00
2019-03-17T09:33:36.440Z,13.00
2019-03-17T09:36:07.314Z,13.00
2019-03-17T09:38:46.760Z,13.00
2019-03-17T09:41:07.205Z,13.00
2019-03-17T09:43:36.346Z,13.10
2019-03-17T09:46:06.530Z,13.20
2019-03-17T09:48:35.646Z,13.30
2019-03-17T09:51:05.297Z,13.30
2019-03-17T09:53:34.672Z,13.40
2019-03-17T09:56:03.820Z,13.50
2019-03-17T09:58:33.240Z,13.50
2019-03-17T10:01:02.544Z,13.50
2019-03-17T10:03:32.046Z,13.50
2019-03-17T10:06:01.220Z,13.50
2019-03-17T10:08:30.274Z,13.60
2019-03-17T10:10:59.428Z,13.60
2019-03-17T10:13:28.779Z,13.60
2019-03-17T10:15:58.238Z,13.60
2019-03-17T10:18:27.228Z,13.60
2019-03-17T10:20:56.652Z,13.60
2019-03-17T10:23:25.771Z,13.60
2019-03-17T10:25:55.232Z,13.60
2019-03-17T10:28:24.320Z,13.60
2019-03-17T10:30:53.375Z,13.50
2019-03-17T10:33:22.576Z,13.50
2019-03-17T10:35:51.660Z,13.40
2019-03-17T10:38:22.260Z,13.40
2019-03-17T10:40:51.529Z,13.40
2019-03-17T10:43:20.432Z,13.40
2019-03-17T10:45:49.548Z,13.50
2019-03-17T10:48:18.989Z,13.50
2019-03-17T10:50:49.732Z,13.50
2019-03-17T10:53:20.606Z,13.50
2019-03-17T10:55:51.530Z,13.60
2019-03-17T10:58:20.634Z,13.60
2019-03-17T11:00:49.851Z,13.70
2019-03-17T11:03:19.173Z,13.70
2019-03-17T11:05:48.501Z,13.70
2019-03-17T11:08:17.660Z,13.70
2019-03-17T11:10:46.746Z,13.70
2019-03-17T11:13:17.427Z,13.70
2019-03-17T11:15:46.581Z,13.70
2019-03-17T11:18:15.878Z,13.80
2019-03-17T11:20:44.793Z,13.80
2019-03-17T11:23:13.825Z,13.80
2019-03-17T11:25:42.917Z,13.90
2019-03-17T11:28:11.872Z,14.00
2019-03-17T11:30:41.070Z,13.90
2019-03-17T11:33:10.097Z,14.00
2019-03-17T11:35:39.322Z,14.10
2019-03-17T11:38:08.488Z,14.10
2019-03-17T11:40:37.581Z,14.20
2019-03-17T11:43:06.727Z,14.10
2019-03-17T11:45:35.871Z,14.10
2019-03-17T11:48:05.000Z,14.10
2019-03-17T11:50:34.305Z,14.00
2019-03-17T11:53:03.515Z,13.90
2019-03-17T11:55:32.889Z,13.90
2019-03-17T11:58:02.547Z,13.70
2019-03-17T12:00:31.823Z,13.70
2019-03-17T12:03:01.364Z,13.60
2019-03-17T12:05:30.600Z,13.60
2019-03-17T12:08:00.339Z,13.60
2019-03-17T12:10:29.847Z,13.50
2019-03-17T12:12:59.268Z,13.60
2019-03-17T12:15:30.947Z,13.70
2019-03-17T12:18:00.240Z,13.80
2019-03-17T12:20:30.116Z,13.80
2019-03-17T12:23:00.354Z,13.90
2019-03-17T12:25:30.100Z,13.90
2019-03-17T12:28:00.950Z,13.90
2019-03-17T12:30:33.333Z,13.90
2019-03-17T12:33:02.450Z,13.90
2019-03-17T12:35:31.619Z,13.80
2019-03-17T12:38:01.048Z,13.90
2019-03-17T12:40:30.127Z,13.80
2019-03-17T12:42:59.401Z,13.70
2019-03-17T12:45:28.607Z,13.70
2019-03-17T12:47:57.835Z,13.70
2019-03-17T12:50:27.206Z,13.70
2019-03-17T12:52:56.881Z,13.60
2019-03-17T12:55:42.999Z,13.50
2019-03-17T12:58:14.976Z,13.40
2019-03-17T13:00:45.478Z,13.00
2019-03-17T13:03:16.186Z,12.80
2019-03-17T13:05:45.209Z,12.70
2019-03-17T13:08:14.295Z,12.60
2019-03-17T13:10:44.055Z,12.40
2019-03-17T13:13:13.272Z,12.20
2019-03-17T13:15:43.347Z,12.10
2019-03-17T13:18:12.749Z,12.00
2019-03-17T13:20:42.407Z,12.00
2019-03-17T13:23:11.624Z,11.80
2019-03-17T13:25:42.588Z,11.70
2019-03-17T13:28:11.621Z,11.50
2019-03-17T13:30:42.723Z,11.50
2019-03-17T13:33:14.164Z,11.50
2019-03-17T13:35:51.188Z,11.40
2019-03-17T13:38:25.264Z,11.50
2019-03-17T13:40:54.785Z,11.40
2019-03-17T13:43:25.257Z,11.40
2019-03-17T13:45:54.449Z,11.40
2019-03-17T13:48:23.624Z,11.50
2019-03-17T13:50:52.875Z,11.50
2019-03-17T13:53:23.010Z,11.60
2019-03-17T13:55:52.665Z,11.60
2019-03-17T13:58:21.874Z,11.50
2019-03-17T14:00:51.418Z,11.50
2019-03-17T14:03:20.880Z,11.50
2019-03-17T14:05:50.304Z,11.50
2019-03-17T14:08:19.685Z,11.60
2019-03-17T14:10:49.606Z,11.60
2019-03-17T14:13:19.273Z,11.60
2019-03-17T14:15:48.556Z,11.60
2019-03-17T14:18:17.681Z,11.60
2019-03-17T14:20:50.651Z,11.70
2019-03-17T14:23:20.461Z,11.70
2019-03-17T14:25:49.435Z,11.70
2019-03-17T14:28:18.532Z,11.70
2019-03-17T14:30:47.592Z,11.80
2019-03-17T14:33:16.807Z,11.80
2019-03-17T14:35:45.765Z,11.80
2019-03-17T14:38:14.942Z,11.80
2019-03-17T14:40:52.833Z,11.80
2019-03-17T14:43:14.955Z,11.70
2019-03-17T14:45:44.617Z,11.70
2019-03-17T14:48:13.706Z,11.70
2019-03-17T14:50:42.971Z,11.70
2019-03-17T14:53:12.333Z,11.70
2019-03-17T14:55:41.559Z,11.70
2019-03-17T14:58:10.860Z,11.70
2019-03-17T15:00:40.102Z,11.70
2019-03-17T15:03:09.228Z,11.70
2019-03-17T15:05:38.234Z,11.70
2019-03-17T15:08:07.466Z,11.70
2019-03-17T15:10:36.548Z,11.70
2019-03-17T15:13:05.621Z,11.80
2019-03-17T15:15:34.887Z,11.80
2019-03-17T15:18:04.765Z,11.80
2019-03-17T15:20:33.860Z,11.80
2019-03-17T15:23:02.919Z,11.80
2019-03-17T15:25:31.849Z,11.90
2019-03-17T15:28:00.808Z,11.90
2019-03-17T15:30:29.952Z,11.90
2019-03-17T15:32:59.048Z,11.90
2019-03-17T15:35:28.839Z,11.90
2019-03-17T15:37:57.977Z,11.90
2019-03-17T15:40:27.227Z,11.90
2019-03-17T15:42:57.074Z,11.90
2019-03-17T15:45:26.924Z,11.90
2019-03-17T15:47:56.570Z,11.80
2019-03-17T15:50:25.560Z,11.80
2019-03-17T15:52:58.617Z,11.80
2019-03-17T15:55:28.087Z,11.80
2019-03-17T15:58:00.134Z,11.80
2019-03-17T16:00:29.454Z,11.80
2019-03-17T16:02:58.855Z,11.80
2019-03-17T16:05:28.109Z,11.80
2019-03-17T16:07:58.464Z,11.80
2019-03-17T16:10:28.682Z,11.70
2019-03-17T16:12:57.949Z,11.70
2019-03-17T16:15:27.106Z,11.80
2019-03-17T16:17:56.538Z,11.80
2019-03-17T16:20:26.124Z,11.70
2019-03-17T16:22:57.334Z,11.70
2019-03-17T16:25:26.958Z,11.70
2019-03-17T16:27:56.618Z,11.70
2019-03-17T16:30:25.950Z,11.60
2019-03-17T16:32:55.328Z,11.60
2019-03-17T16:35:24.570Z,11.60
2019-03-17T16:37:53.907Z,11.60
2019-03-17T16:40:23.540Z,11.60
2019-03-17T16:42:53.999Z,11.50
2019-03-17T16:45:23.339Z,11.60
2019-03-17T16:47:53.650Z,11.60
2019-03-17T16:50:22.984Z,11.60
2019-03-17T16:52:58.147Z,11.60
2019-03-17T16:55:29.754Z,11.50
2019-03-17T16:58:01.279Z,11.60
2019-03-17T17:00:30.554Z,11.60
2019-03-17T17:03:11.568Z,11.50
2019-03-17T17:05:43.963Z,11.40
2019-03-17T17:08:16.554Z,11.40
2019-03-17T17:10:50.564Z,11.40
2019-03-17T17:13:19.097Z,11.40
2019-03-17T17:15:48.298Z,11.20
2019-03-17T17:18:17.458Z,11.00
2019-03-17T17:20:47.894Z,11.00
2019-03-17T17:23:16.872Z,10.90
2019-03-17T17:25:46.125Z,10.90
2019-03-17T17:28:15.393Z,10.80
2019-03-17T17:30:44.671Z,10.70
2019-03-17T17:33:17.015Z,10.70
2019-03-17T17:35:46.228Z,10.60
2019-03-17T17:38:15.874Z,10.60
2019-03-17T17:40:46.174Z,10.50
2019-03-17T17:43:17.762Z,10.50
2019-03-17T17:45:47.508Z,10.40
2019-03-17T17:48:17.137Z,10.30
2019-03-17T17:50:46.742Z,10.30
2019-03-17T17:53:18.964Z,10.30
2019-03-17T17:55:48.831Z,10.30
2019-03-17T17:58:18.396Z,10.20
2019-03-17T18:00:49.732Z,10.20
2019-03-17T18:03:20.050Z,10.20
2019-03-17T18:05:49.269Z,10.10
2019-03-17T18:08:18.799Z,10.00
2019-03-17T18:10:48.062Z,10.00
2019-03-17T18:13:17.259Z,10.00
2019-03-17T18:15:46.417Z,10.00
2019-03-17T18:18:17.621Z,10.10
2019-03-17T18:20:46.912Z,10.10
2019-03-17T18:23:18.170Z,10.10
2019-03-17T18:25:46.807Z,10.20
2019-03-17T18:28:16.495Z,10.10
2019-03-17T18:30:46.064Z,10.10
2019-03-17T18:33:38.215Z,10.00
2019-03-17T18:36:07.949Z,10.00
2019-03-17T18:38:37.091Z,10.00
2019-03-17T18:41:08.127Z,10.00
2019-03-17T18:43:37.851Z,9.90
2019-03-17T18:46:07.177Z,10.00
2019-03-17T18:48:36.335Z,10.00
2019-03-17T18:51:05.582Z,9.90
2019-03-17T18:53:34.601Z,9.90
2019-03-17T18:56:03.781Z,9.80
2019-03-17T18:58:32.930Z,9.80
2019-03-17T19:01:01.999Z,9.80
2019-03-17T19:03:32.181Z,9.90
2019-03-17T19:06:07.649Z,9.80
2019-03-17T19:08:47.055Z,9.70
2019-03-17T19:11:22.245Z,9.70
2019-03-17T19:13:52.077Z,9.70
2019-03-17T19:16:21.137Z,9.60
2019-03-17T19:18:50.276Z,9.60
2019-03-17T19:21:20.089Z,9.60
2019-03-17T19:23:49.732Z,9.60
2019-03-17T19:26:19.134Z,9.60
2019-03-17T19:28:48.198Z,9.60
2019-03-17T19:31:18.042Z,9.60
2019-03-17T19:33:47.378Z,9.50
2019-03-17T19:36:16.760Z,9.50
2019-03-17T19:38:46.007Z,9.50
2019-03-17T19:41:15.882Z,9.50
2019-03-17T19:43:45.441Z,9.40
2019-03-17T19:46:18.663Z,9.40
2019-03-17T19:48:47.929Z,9.40
2019-03-17T19:51:19.040Z,9.40
2019-03-17T19:53:48.471Z,9.40
2019-03-17T19:56:17.775Z,9.40
2019-03-17T19:58:47.068Z,9.50
2019-03-17T20:01:16.370Z,9.50
2019-03-17T20:03:47.589Z,9.50
2019-03-17T20:06:17.757Z,9.50
2019-03-17T20:08:46.950Z,9.60
2019-03-17T20:11:16.123Z,9.60
2019-03-17T20:13:45.388Z,9.60
2019-03-17T20:16:14.735Z,9.70
2019-03-17T20:18:43.783Z,9.70
2019-03-17T20:21:14.703Z,9.60
2019-03-17T20:23:46.533Z,9.60
2019-03-17T20:26:15.918Z,9.60
2019-03-17T20:28:47.734Z,9.60
2019-03-17T20:31:17.551Z,9.50
2019-03-17T20:33:48.429Z,9.60
2019-03-17T20:36:17.672Z,9.60
2019-03-17T20:38:46.615Z,9.70
2019-03-17T20:41:16.392Z,9.70
2019-03-17T20:43:45.676Z,9.60
2019-03-17T20:46:14.723Z,9.60
2019-03-17T20:48:43.826Z,9.60
2019-03-17T20:51:13.235Z,9.60
2019-03-17T20:53:42.397Z,9.60
2019-03-17T20:56:11.496Z,9.60
2019-03-17T20:58:40.818Z,9.60
2019-03-17T21:01:10.087Z,9.60
2019-03-17T21:03:42.875Z,9.50
2019-03-17T21:06:13.644Z,9.50
2019-03-17T21:08:42.799Z,9.40
2019-03-17T21:11:14.475Z,9.40
2019-03-17T21:13:46.824Z,9.40
2019-03-17T21:16:14.326Z,9.50
2019-03-17T21:18:43.489Z,9.50
2019-03-17T21:21:12.658Z,9.50
2019-03-17T21:23:41.702Z,9.50
2019-03-17T21:26:10.920Z,9.50
2019-03-17T21:28:39.947Z,9.40
2019-03-17T21:31:09.062Z,9.50
2019-03-17T21:33:40.230Z,9.50
2019-03-17T21:36:08.652Z,9.40
2019-03-17T21:38:37.626Z,9.40
2019-03-17T21:41:07.386Z,9.30
2019-03-17T21:43:37.080Z,9.30
2019-03-17T21:46:06.211Z,9.30
2019-03-17T21:48:35.320Z,9.30
2019-03-17T21:51:04.531Z,9.30
2019-03-17T21:53:33.591Z,9.30
2019-03-17T21:56:02.465Z,9.30
2019-03-17T21:58:31.533Z,9.30
2019-03-17T22:01:01.095Z,9.40
2019-03-17T22:03:30.301Z,9.30
2019-03-17T22:06:00.604Z,9.20
2019-03-17T22:08:30.426Z,9.30
2019-03-17T22:10:59.489Z,9.30
2019-03-17T22:13:29.268Z,9.40
2019-03-17T22:15:58.298Z,9.30
2019-03-17T22:18:27.207Z,9.40
2019-03-17T22:20:56.161Z,9.30
2019-03-17T22:23:33.672Z,9.30
2019-03-17T22:26:02.783Z,9.30
2019-03-17T22:28:31.952Z,9.30
2019-03-17T22:31:01.120Z,9.30
2019-03-17T22:33:30.336Z,9.40
2019-03-17T22:35:59.710Z,9.40
2019-03-17T22:38:28.762Z,9.40
2019-03-17T22:40:57.851Z,9.40
2019-03-17T22:43:26.972Z,9.30
2019-03-17T22:45:58.375Z,9.30
2019-03-17T22:48:27.422Z,9.30
2019-03-17T22:50:56.534Z,9.30
2019-03-17T22:53:25.718Z,9.40
2019-03-17T22:55:54.877Z,9.40
2019-03-17T22:58:24.181Z,9.40
2019-03-17T23:00:53.709Z,9.30
2019-03-17T23:03:22.826Z,9.30
2019-03-17T23:05:52.060Z,9.30
2019-03-17T23:08:21.178Z,9.30
2019-03-17T23:10:50.354Z,9.30
2019-03-17T23:13:19.424Z,9.40
2019-03-17T23:15:48.576Z,9.40
2019-03-17T23:18:17.677Z,9.40
2019-03-17T23:20:46.774Z,9.40
2019-03-17T23:23:15.870Z,9.30
2019-03-17T23:25:45.915Z,9.30
2019-03-17T23:28:15.010Z,9.10
2019-03-17T23:30:44.170Z,9.10
2019-03-17T23:33:13.387Z,9.10
2019-03-17T23:35:42.685Z,9.00
2019-03-17T23:38:11.801Z,9.00
2019-03-17T23:40:40.779Z,8.80
2019-03-17T23:43:09.788Z,8.80
2019-03-17T23:45:38.805Z,8.80
2019-03-17T23:48:07.841Z,8.80
2019-03-17T23:50:36.779Z,8.90
2019-03-17T23:53:05.803Z,8.90
2019-03-17T23:55:41.305Z,8.90
2019-03-17T23:58:10.209Z,8.90
